ENSS Airport Information

Runway Information
Runway 15 Length 3707 ft width 98 ft Elevation 42 ft Threshold 197 ft Heading 163
Runway 33 Length 3707 ft Width 98 ft Elevation 24 ft Threshold 148 ft Heading 343
Airport Frequencies
Type AFIS Name VARDO INFO Frequency 122.15 MHZ
Airport Navaids
Type VOR-DME Name Vardo Frequency 114100 KHZ
Airport Weather Information & NOTAM
ADDS - METARS form results

(1745 UTC 01 December 2022)
Data provider http://aviationweather.gov/metar/data/
 
METAR text: ENSS 011720Z 24006KT 9999 BKN014 M00/M03 Q1036 RMK WIND 0500FT 23008KT
Conditions at: ENSS (SVARTNES , NO) observed 1720 UTC 01 December 2022
Temperature: 0.0°C (32°F)
Dewpoint: -3.0°C (27°F) [RH = 80%]
Pressure (altimeter): 30.59 inches Hg (1036.0 mb)
Winds: from the WSW (240 degrees) at 7 MPH (6 knots; 3.1 m/s)
Visibility: 6 or more miles (10+ km)
Ceiling: 1400 feet AGL
Clouds: broken clouds at 1400 feet AGL
Weather: no significant weather observed at this time

METAR text: ENSS 011650Z 25007KT 9999 BKN015 M00/M03 Q1036 RMK WIND 0500FT 24008KT
Conditions at: ENSS (SVARTNES , NO) observed 1650 UTC 01 December 2022
Temperature: 0.0°C (32°F)
Dewpoint: -3.0°C (27°F) [RH = 80%]
Pressure (altimeter): 30.59 inches Hg (1036.0 mb)
Winds: from the WSW (250 degrees) at 8 MPH (7 knots; 3.6 m/s)
Visibility: 6 or more miles (10+ km)
Ceiling: 1500 feet AGL
Clouds: broken clouds at 1500 feet AGL
Weather: no significant weather observed at this time